sensor_id;sensor_type;location;lat;lon;timestamp;pressure;altitude;pressure_sealevel;temperature;humidity
7768;BME280;3928;42.626;23.382;2023-04-28T00:00:00;94359.56;;;10.10;42.59
7768;BME280;3928;42.626;23.382;2023-04-28T00:02:27;94345.13;;;10.03;42.61
7768;BME280;3928;42.626;23.382;2023-04-28T00:04:53;94360.47;;;10.08;42.63
7768;BME280;3928;42.626;23.382;2023-04-28T00:07:22;94362.50;;;9.81;43.60
7768;BME280;3928;42.626;23.382;2023-04-28T00:09:49;94367.38;;;10.01;42.57
7768;BME280;3928;42.626;23.382;2023-04-28T00:12:16;94364.34;;;9.70;43.05
7768;BME280;3928;42.626;23.382;2023-04-28T00:14:43;94371.25;;;9.65;43.57
7768;BME280;3928;42.626;23.382;2023-04-28T00:17:10;94361.06;;;9.60;43.86
7768;BME280;3928;42.626;23.382;2023-04-28T00:19:37;94369.53;;;9.67;43.75
7768;BME280;3928;42.626;23.382;2023-04-28T00:22:03;94290.84;;;9.06;43.85
7768;BME280;3928;42.626;23.382;2023-04-28T00:24:32;94371.25;;;9.65;44.17
7768;BME280;3928;42.626;23.382;2023-04-28T00:27:00;94351.00;;;9.44;44.32
7768;BME280;3928;42.626;23.382;2023-04-28T00:29:28;94362.94;;;9.45;44.56
7768;BME280;3928;42.626;23.382;2023-04-28T00:31:55;94354.41;;;9.44;44.18
7768;BME280;3928;42.626;23.382;2023-04-28T00:34:22;94367.94;;;9.55;44.64
7768;BME280;3928;42.626;23.382;2023-04-28T00:36:48;94355.00;;;9.67;43.82
7768;BME280;3928;42.626;23.382;2023-04-28T00:39:15;94349.25;;;9.49;43.87
7768;BME280;3928;42.626;23.382;2023-04-28T00:41:44;94373.19;;;9.45;44.69
7768;BME280;3928;42.626;23.382;2023-04-28T00:44:11;94197.72;;;8.42;44.67
7768;BME280;3928;42.626;23.382;2023-04-28T00:46:38;94383.38;;;9.51;43.82
7768;BME280;3928;42.626;23.382;2023-04-28T00:49:05;94380.00;;;9.49;44.50
7768;BME280;3928;42.626;23.382;2023-04-28T00:51:32;94371.69;;;9.28;44.72
7768;BME280;3928;42.626;23.382;2023-04-28T00:54:02;94371.59;;;9.36;44.94
7768;BME280;3928;42.626;23.382;2023-04-28T00:56:29;94373.16;;;9.51;44.75
7768;BME280;3928;42.626;23.382;2023-04-28T00:58:58;94378.31;;;9.48;44.59
7768;BME280;3928;42.626;23.382;2023-04-28T01:01:25;94377.34;;;9.55;44.06
7768;BME280;3928;42.626;23.382;2023-04-28T01:03:51;94391.94;;;9.50;44.35
7768;BME280;3928;42.626;23.382;2023-04-28T01:06:19;94379.28;;;9.37;45.08
7768;BME280;3928;42.626;23.382;2023-04-28T01:08:47;94386.25;;;9.25;45.43
7768;BME280;3928;42.626;23.382;2023-04-28T01:11:14;94388.75;;;9.29;44.72
7768;BME280;3928;42.626;23.382;2023-04-28T01:13:41;94338.88;;;8.83;45.56
7768;BME280;3928;42.626;23.382;2023-04-28T01:16:09;94388.09;;;9.07;45.30
7768;BME280;3928;42.626;23.382;2023-04-28T01:18:36;94389.00;;;9.05;45.89
7768;BME280;3928;42.626;23.382;2023-04-28T01:21:04;94352.47;;;8.89;45.16
7768;BME280;3928;42.626;23.382;2023-04-28T01:23:31;94390.84;;;8.91;45.85
7768;BME280;3928;42.626;23.382;2023-04-28T01:25:59;94387.28;;;9.04;45.33
7768;BME280;3928;42.626;23.382;2023-04-28T01:28:26;94368.66;;;8.90;45.80
7768;BME280;3928;42.626;23.382;2023-04-28T01:30:53;94389.03;;;8.99;45.40
7768;BME280;3928;42.626;23.382;2023-04-28T01:33:21;94383.91;;;9.02;44.92
7768;BME280;3928;42.626;23.382;2023-04-28T01:35:48;94398.31;;;9.11;44.67
7768;BME280;3928;42.626;23.382;2023-04-28T01:38:14;94394.25;;;8.87;45.88
7768;BME280;3928;42.626;23.382;2023-04-28T01:40:41;94383.94;;;8.96;44.57
7768;BME280;3928;42.626;23.382;2023-04-28T01:43:10;94396.66;;;9.06;44.25
7768;BME280;3928;42.626;23.382;2023-04-28T01:45:36;94238.06;;;8.08;44.86
7768;BME280;3928;42.626;23.382;2023-04-28T01:48:03;94385.63;;;9.01;44.46
7768;BME280;3928;42.626;23.382;2023-04-28T01:50:31;94393.19;;;9.09;44.83
7768;BME280;3928;42.626;23.382;2023-04-28T01:52:57;94398.41;;;9.03;44.48
7768;BME280;3928;42.626;23.382;2023-04-28T01:55:24;94372.97;;;8.83;44.56
7768;BME280;3928;42.626;23.382;2023-04-28T01:57:51;94375.50;;;8.85;44.12
7768;BME280;3928;42.626;23.382;2023-04-28T02:00:19;94372.13;;;8.83;44.72
7768;BME280;3928;42.626;23.382;2023-04-28T02:02:46;94380.47;;;9.03;44.32
7768;BME280;3928;42.626;23.382;2023-04-28T02:05:13;94373.94;;;8.71;45.46
7768;BME280;3928;42.626;23.382;2023-04-28T02:07:40;94389.19;;;8.84;45.27
7768;BME280;3928;42.626;23.382;2023-04-28T02:10:08;94368.84;;;8.68;45.16
7768;BME280;3928;42.626;23.382;2023-04-28T02:12:34;94394.28;;;8.88;45.34
7768;BME280;3928;42.626;23.382;2023-04-28T02:15:01;94394.19;;;8.96;45.01
7768;BME280;3928;42.626;23.382;2023-04-28T02:17:30;94400.25;;;8.84;45.39
7768;BME280;3928;42.626;23.382;2023-04-28T02:19:57;94397.69;;;8.89;45.37
7768;BME280;3928;42.626;23.382;2023-04-28T02:22:24;94403.59;;;8.94;45.06
7768;BME280;3928;42.626;23.382;2023-04-28T02:24:51;94404.56;;;8.81;45.66
7768;BME280;3928;42.626;23.382;2023-04-28T02:27:18;94401.06;;;8.88;46.04
7768;BME280;3928;42.626;23.382;2023-04-28T02:29:45;94416.44;;;8.88;45.47
7768;BME280;3928;42.626;23.382;2023-04-28T02:32:12;94398.66;;;8.71;45.94
7768;BME280;3928;42.626;23.382;2023-04-28T02:34:41;94403.66;;;8.86;45.77
7768;BME280;3928;42.626;23.382;2023-04-28T02:37:08;94413.78;;;8.98;45.49
7768;BME280;3928;42.626;23.382;2023-04-28T02:39:35;94420.72;;;8.84;45.56
7768;BME280;3928;42.626;23.382;2023-04-28T02:42:02;94381.03;;;8.36;46.75
7768;BME280;3928;42.626;23.382;2023-04-28T02:44:31;94401.41;;;8.46;46.49
7768;BME280;3928;42.626;23.382;2023-04-28T02:46:58;94425.22;;;8.56;46.81
7768;BME280;3928;42.626;23.382;2023-04-28T02:49:27;94428.63;;;8.58;46.96
7768;BME280;3928;42.626;23.382;2023-04-28T02:51:55;94403.16;;;8.41;46.88
7768;BME280;3928;42.626;23.382;2023-04-28T02:54:23;94420.06;;;8.61;47.18
7768;BME280;3928;42.626;23.382;2023-04-28T02:56:53;94412.50;;;8.45;46.81
7768;BME280;3928;42.626;23.382;2023-04-28T02:59:20;94434.75;;;8.30;47.43
7768;BME280;3928;42.626;23.382;2023-04-28T03:01:46;94408.34;;;8.25;48.03
7768;BME280;3928;42.626;23.382;2023-04-28T03:04:14;94435.56;;;8.29;48.01
7768;BME280;3928;42.626;23.382;2023-04-28T03:06:41;94434.66;;;8.46;47.00
7768;BME280;3928;42.626;23.382;2023-04-28T03:09:09;94431.28;;;8.43;47.15
7768;BME280;3928;42.626;23.382;2023-04-28T03:11:37;94441.47;;;8.49;47.35
7768;BME280;3928;42.626;23.382;2023-04-28T03:14:03;94432.84;;;8.61;47.01
7768;BME280;3928;42.626;23.382;2023-04-28T03:16:30;94434.50;;;8.69;47.06
7768;BME280;3928;42.626;23.382;2023-04-28T03:18:57;94442.22;;;8.66;46.33
7768;BME280;3928;42.626;23.382;2023-04-28T03:21:24;94436.19;;;8.70;45.95
7768;BME280;3928;42.626;23.382;2023-04-28T03:23:52;94438.75;;;8.72;46.25
7768;BME280;3928;42.626;23.382;2023-04-28T03:26:20;94455.91;;;8.58;46.15
7768;BME280;3928;42.626;23.382;2023-04-28T03:28:47;94456.78;;;8.54;45.81
7768;BME280;3928;42.626;23.382;2023-04-28T03:31:14;94462.59;;;8.74;45.55
7768;BME280;3928;42.626;23.382;2023-04-28T03:33:40;94461.91;;;8.50;46.42
7768;BME280;3928;42.626;23.382;2023-04-28T03:36:09;94457.63;;;8.54;46.21
7768;BME280;3928;42.626;23.382;2023-04-28T03:38:36;94461.97;;;8.41;45.95
7768;BME280;3928;42.626;23.382;2023-04-28T03:41:03;94462.81;;;8.43;46.51
7768;BME280;3928;42.626;23.382;2023-04-28T03:43:32;94469.63;;;8.44;46.25
7768;BME280;3928;42.626;23.382;2023-04-28T03:46:00;94478.03;;;8.63;45.03
7768;BME280;3928;42.626;23.382;2023-04-28T03:48:26;94484.06;;;8.55;45.54
7768;BME280;3928;42.626;23.382;2023-04-28T03:50:53;94463.69;;;8.41;45.93
7768;BME280;3928;42.626;23.382;2023-04-28T03:53:20;94484.88;;;8.58;45.01
7768;BME280;3928;42.626;23.382;2023-04-28T03:55:47;94486.56;;;8.62;44.96
7768;BME280;3928;42.626;23.382;2023-04-28T03:58:14;94487.56;;;8.34;45.89
7768;BME280;3928;42.626;23.382;2023-04-28T04:00:42;94482.44;;;8.32;45.55
7768;BME280;3928;42.626;23.382;2023-04-28T04:03:09;94492.66;;;8.38;44.86
7768;BME280;3928;42.626;23.382;2023-04-28T04:05:38;94506.22;;;8.51;45.09
7768;BME280;3928;42.626;23.382;2023-04-28T04:08:05;94507.06;;;8.56;44.76
7768;BME280;3928;42.626;23.382;2023-04-28T04:10:34;94510.38;;;8.70;45.11
7768;BME280;3928;42.626;23.382;2023-04-28T04:13:01;94496.78;;;8.65;44.45
7768;BME280;3928;42.626;23.382;2023-04-28T04:15:30;94515.38;;;8.87;44.00
7768;BME280;3928;42.626;23.382;2023-04-28T04:17:58;94518.75;;;8.94;43.68
7768;BME280;3928;42.626;23.382;2023-04-28T04:20:25;94515.25;;;9.07;44.33
7768;BME280;3928;42.626;23.382;2023-04-28T04:22:52;94511.88;;;8.99;43.60
7768;BME280;3928;42.626;23.382;2023-04-28T04:25:19;94512.75;;;9.02;43.08
7768;BME280;3928;42.626;23.382;2023-04-28T04:27:45;94521.09;;;9.23;43.21
7768;BME280;3928;42.626;23.382;2023-04-28T04:30:12;94518.53;;;9.24;43.23
7768;BME280;3928;42.626;23.382;2023-04-28T04:32:39;94520.19;;;9.31;43.13
7768;BME280;3928;42.626;23.382;2023-04-28T04:35:08;94525.16;;;9.50;43.16
7768;BME280;3928;42.626;23.382;2023-04-28T04:37:35;94526.69;;;9.66;43.14
7768;BME280;3928;42.626;23.382;2023-04-28T04:40:02;94525.00;;;9.65;42.48
7768;BME280;3928;42.626;23.382;2023-04-28T04:42:29;94528.44;;;9.62;41.63
7768;BME280;3928;42.626;23.382;2023-04-28T04:44:57;94522.28;;;9.80;41.90
7768;BME280;3928;42.626;23.382;2023-04-28T04:47:24;94529.19;;;9.75;41.47
7768;BME280;3928;42.626;23.382;2023-04-28T04:49:51;94533.25;;;9.93;42.17
7768;BME280;3928;42.626;23.382;2023-04-28T04:52:19;94539.88;;;10.14;42.14
7768;BME280;3928;42.626;23.382;2023-04-28T04:54:46;94527.00;;;10.20;41.38
7768;BME280;3928;42.626;23.382;2023-04-28T04:57:13;94492.88;;;10.12;41.36
7768;BME280;3928;42.626;23.382;2023-04-28T04:59:40;94541.66;;;10.79;65.99
7768;BME280;3928;42.626;23.382;2023-04-28T05:02:06;94543.66;;;11.18;47.58
7768;BME280;3928;42.626;23.382;2023-04-28T05:04:33;94554.00;;;11.11;39.51
7768;BME280;3928;42.626;23.382;2023-04-28T05:07:00;94547.47;;;10.92;40.45
7768;BME280;3928;42.626;23.382;2023-04-28T05:09:29;94552.63;;;10.89;40.36
7768;BME280;3928;42.626;23.382;2023-04-28T05:11:56;94539.66;;;10.98;48.24
7768;BME280;3928;42.626;23.382;2023-04-28T05:14:23;94513.84;;;11.07;40.75
7768;BME280;3928;42.626;23.382;2023-04-28T05:16:50;94558.69;;;11.42;40.70
7768;BME280;3928;42.626;23.382;2023-04-28T05:19:16;94558.75;;;11.39;39.77
7768;BME280;3928;42.626;23.382;2023-04-28T05:21:43;94553.31;;;11.57;40.18
7768;BME280;3928;42.626;23.382;2023-04-28T05:24:11;94550.03;;;11.49;39.11
7768;BME280;3928;42.626;23.382;2023-04-28T05:26:40;94553.03;;;11.74;39.07
7768;BME280;3928;42.626;23.382;2023-04-28T05:29:06;94562.09;;;11.44;39.36
7768;BME280;3928;42.626;23.382;2023-04-28T05:31:33;94550.38;;;11.80;39.54
7768;BME280;3928;42.626;23.382;2023-04-28T05:34:00;94549.56;;;11.77;39.24
7768;BME280;3928;42.626;23.382;2023-04-28T05:36:27;94549.28;;;11.93;39.64
7768;BME280;3928;42.626;23.382;2023-04-28T05:38:53;94535.97;;;11.68;39.96
7768;BME280;3928;42.626;23.382;2023-04-28T05:41:20;94550.34;;;11.82;39.35
7768;BME280;3928;42.626;23.382;2023-04-28T05:43:48;94547.00;;;11.77;39.35
7768;BME280;3928;42.626;23.382;2023-04-28T05:46:15;94544.47;;;11.74;39.12
7768;BME280;3928;42.626;23.382;2023-04-28T05:48:42;94547.75;;;11.85;39.52
7768;BME280;3928;42.626;23.382;2023-04-28T05:51:09;94545.41;;;11.68;39.00
7768;BME280;3928;42.626;23.382;2023-04-28T05:53:36;94558.66;;;11.43;39.06
7768;BME280;3928;42.626;23.382;2023-04-28T05:56:03;94551.72;;;11.50;39.62
7768;BME280;3928;42.626;23.382;2023-04-28T05:58:29;94553.56;;;11.42;39.22
7768;BME280;3928;42.626;23.382;2023-04-28T06:00:58;94552.63;;;11.46;40.21
7768;BME280;3928;42.626;23.382;2023-04-28T06:03:25;94542.91;;;11.65;39.66
7768;BME280;3928;42.626;23.382;2023-04-28T06:05:52;94542.13;;;11.61;40.05
7768;BME280;3928;42.626;23.382;2023-04-28T06:08:19;94555.09;;;11.54;39.17
7768;BME280;3928;42.626;23.382;2023-04-28T06:10:46;94564.16;;;11.21;39.82
7768;BME280;3928;42.626;23.382;2023-04-28T06:13:14;94552.19;;;11.20;40.41
7768;BME280;3928;42.626;23.382;2023-04-28T06:15:40;94554.19;;;11.56;40.40
7768;BME280;3928;42.626;23.382;2023-04-28T06:18:09;94540.88;;;11.84;38.63
7768;BME280;3928;42.626;23.382;2023-04-28T06:20:35;94432.84;;;11.39;38.16
7768;BME280;3928;42.626;23.382;2023-04-28T06:23:02;94556.25;;;12.35;38.03
7768;BME280;3928;42.626;23.382;2023-04-28T06:25:29;94548.97;;;12.53;37.18
7768;BME280;3928;42.626;23.382;2023-04-28T06:27:56;94556.38;;;12.70;37.19
7768;BME280;3928;42.626;23.382;2023-04-28T06:30:23;94558.84;;;12.75;36.73
7768;BME280;3928;42.626;23.382;2023-04-28T06:32:50;94563.81;;;12.84;36.54
7768;BME280;3928;42.626;23.382;2023-04-28T06:35:19;94561.53;;;12.70;36.43
7768;BME280;3928;42.626;23.382;2023-04-28T06:37:45;94558.00;;;12.74;36.16
7768;BME280;3928;42.626;23.382;2023-04-28T06:40:12;94551.69;;;12.87;36.16
7768;BME280;3928;42.626;23.382;2023-04-28T06:42:39;94532.59;;;12.98;36.07
7768;BME280;3928;42.626;23.382;2023-04-28T06:45:07;94545.19;;;13.10;35.85
7768;BME280;3928;42.626;23.382;2023-04-28T06:47:34;94553.41;;;13.29;35.87
7768;BME280;3928;42.626;23.382;2023-04-28T06:50:01;94544.22;;;13.15;35.26
7768;BME280;3928;42.626;23.382;2023-04-28T06:52:30;94530.59;;;13.10;36.17
7768;BME280;3928;42.626;23.382;2023-04-28T06:54:56;94550.97;;;12.82;35.40
7768;BME280;3928;42.626;23.382;2023-04-28T06:57:23;94545.75;;;13.24;34.94
7768;BME280;3928;42.626;23.382;2023-04-28T06:59:50;94535.13;;;13.39;35.26
7768;BME280;3928;42.626;23.382;2023-04-28T07:02:17;94551.22;;;13.48;35.04
7768;BME280;3928;42.626;23.382;2023-04-28T07:04:44;94547.63;;;13.55;35.20
7768;BME280;3928;42.626;23.382;2023-04-28T07:07:10;94554.50;;;13.90;35.24
7768;BME280;3928;42.626;23.382;2023-04-28T07:09:38;94520.91;;;13.91;35.22
7768;BME280;3928;42.626;23.382;2023-04-28T07:12:06;94556.72;;;14.36;34.52
7768;BME280;3928;42.626;23.382;2023-04-28T07:14:32;94557.13;;;14.53;32.86
7768;BME280;3928;42.626;23.382;2023-04-28T07:16:59;94538.53;;;14.39;32.99
7768;BME280;3928;42.626;23.382;2023-04-28T07:19:26;94547.69;;;14.52;33.19
7768;BME280;3928;42.626;23.382;2023-04-28T07:21:53;94549.66;;;14.74;32.91
7768;BME280;3928;42.626;23.382;2023-04-28T07:24:20;94550.56;;;14.73;32.90
7768;BME280;3928;42.626;23.382;2023-04-28T07:26:49;94533.91;;;14.83;33.20
7768;BME280;3928;42.626;23.382;2023-04-28T07:29:16;94543.28;;;14.85;33.90
7768;BME280;3928;42.626;23.382;2023-04-28T07:31:43;94547.56;;;15.16;32.97
7768;BME280;3928;42.626;23.382;2023-04-28T07:34:09;94532.03;;;15.16;32.85
7768;BME280;3928;42.626;23.382;2023-04-28T07:36:36;94549.88;;;15.52;32.18
7768;BME280;3928;42.626;23.382;2023-04-28T07:39:03;94540.75;;;15.68;31.95
7768;BME280;3928;42.626;23.382;2023-04-28T07:41:35;94555.88;;;15.80;31.67
7768;BME280;3928;42.626;23.382;2023-04-28T07:44:04;94545.25;;;15.89;31.61
7768;BME280;3928;42.626;23.382;2023-04-28T07:46:32;94548.81;;;16.10;31.76
7768;BME280;3928;42.626;23.382;2023-04-28T07:48:58;94550.72;;;16.05;31.28
7768;BME280;3928;42.626;23.382;2023-04-28T07:51:25;94544.81;;;16.26;31.18
7768;BME280;3928;42.626;23.382;2023-04-28T07:53:52;94555.69;;;16.61;31.35
7768;BME280;3928;42.626;23.382;2023-04-28T07:56:19;94550.44;;;16.87;31.37
7768;BME280;3928;42.626;23.382;2023-04-28T07:58:47;94539.19;;;17.10;29.85
7768;BME280;3928;42.626;23.382;2023-04-28T08:01:15;94529.44;;;17.17;30.25
7768;BME280;3928;42.626;23.382;2023-04-28T08:03:42;94536.44;;;17.37;29.33
7768;BME280;3928;42.626;23.382;2023-04-28T08:06:09;94550.06;;;17.64;28.93
7768;BME280;3928;42.626;23.382;2023-04-28T08:08:35;94541.13;;;17.93;28.72
7768;BME280;3928;42.626;23.382;2023-04-28T08:11:02;94539.00;;;18.23;29.12
7768;BME280;3928;42.626;23.382;2023-04-28T08:13:29;94535.00;;;17.73;28.90
7768;BME280;3928;42.626;23.382;2023-04-28T08:15:56;94498.72;;;17.72;28.67
7768;BME280;3928;42.626;23.382;2023-04-28T08:18:26;94545.63;;;18.30;28.53
7768;BME280;3928;42.626;23.382;2023-04-28T08:20:53;94546.38;;;18.52;27.69
7768;BME280;3928;42.626;23.382;2023-04-28T08:23:20;94548.19;;;18.70;27.28
7768;BME280;3928;42.626;23.382;2023-04-28T08:25:48;94546.31;;;18.93;26.33
7768;BME280;3928;42.626;23.382;2023-04-28T08:28:15;94547.03;;;19.15;26.45
7768;BME280;3928;42.626;23.382;2023-04-28T08:30:42;94539.31;;;19.33;26.15
7768;BME280;3928;42.626;23.382;2023-04-28T08:33:09;94544.63;;;19.48;26.47
7768;BME280;3928;42.626;23.382;2023-04-28T08:35:37;94536.78;;;19.31;26.20
7768;BME280;3928;42.626;23.382;2023-04-28T08:38:05;94535.09;;;19.11;25.58
7768;BME280;3928;42.626;23.382;2023-04-28T08:40:32;94537.47;;;19.16;26.28
7768;BME280;3928;42.626;23.382;2023-04-28T08:42:59;94541.84;;;19.34;26.54
7768;BME280;3928;42.626;23.382;2023-04-28T08:45:28;94540.03;;;18.98;26.33
7768;BME280;3928;42.626;23.382;2023-04-28T08:47:57;94504.06;;;18.30;26.64
7768;BME280;3928;42.626;23.382;2023-04-28T08:50:25;94534.31;;;18.51;26.94
7768;BME280;3928;42.626;23.382;2023-04-28T08:52:55;94527.75;;;18.82;26.38
7768;BME280;3928;42.626;23.382;2023-04-28T08:55:22;94531.09;;;19.04;26.66
7768;BME280;3928;42.626;23.382;2023-04-28T08:57:50;94521.94;;;19.14;27.28
7768;BME280;3928;42.626;23.382;2023-04-28T09:00:17;94525.28;;;18.60;26.56
7768;BME280;3928;42.626;23.382;2023-04-28T09:02:44;94518.66;;;18.32;26.70
7768;BME280;3928;42.626;23.382;2023-04-28T09:05:12;94525.00;;;18.46;26.51
7768;BME280;3928;42.626;23.382;2023-04-28T09:07:39;94496.56;;;18.82;26.40
7768;BME280;3928;42.626;23.382;2023-04-28T09:10:16;94520.97;;;18.98;26.02
7768;BME280;3928;42.626;23.382;2023-04-28T09:12:43;94516.59;;;18.40;25.83
7768;BME280;3928;42.626;23.382;2023-04-28T09:15:24;94510.47;;;17.59;26.79
7768;BME280;3928;42.626;23.382;2023-04-28T09:17:51;94483.69;;;17.36;27.49
7768;BME280;3928;42.626;23.382;2023-04-28T09:20:19;94497.84;;;17.93;27.62
7768;BME280;3928;42.626;23.382;2023-04-28T09:22:45;94503.44;;;18.64;27.05
7768;BME280;3928;42.626;23.382;2023-04-28T09:25:15;94500.78;;;19.22;26.54
7768;BME280;3928;42.626;23.382;2023-04-28T09:27:42;94496.84;;;19.85;26.49
7768;BME280;3928;42.626;23.382;2023-04-28T09:30:09;94483.88;;;20.36;25.48
7768;BME280;3928;42.626;23.382;2023-04-28T09:32:36;94476.25;;;20.82;25.49
7768;BME280;3928;42.626;23.382;2023-04-28T09:35:03;94481.84;;;21.23;25.11
7768;BME280;3928;42.626;23.382;2023-04-28T09:37:32;94479.56;;;21.64;24.46
7768;BME280;3928;42.626;23.382;2023-04-28T09:40:04;94476.31;;;21.91;24.04
7768;BME280;3928;42.626;23.382;2023-04-28T09:42:34;94456.81;;;21.96;23.72
7768;BME280;3928;42.626;23.382;2023-04-28T09:45:02;94476.50;;;22.32;23.55
7768;BME280;3928;42.626;23.382;2023-04-28T09:47:30;94452.97;;;22.17;22.99
7768;BME280;3928;42.626;23.382;2023-04-28T09:50:02;94477.44;;;22.01;23.03
7768;BME280;3928;42.626;23.382;2023-04-28T09:52:29;94467.91;;;22.15;23.18
7768;BME280;3928;42.626;23.382;2023-04-28T09:54:56;94465.28;;;22.15;22.77
7768;BME280;3928;42.626;23.382;2023-04-28T09:57:24;94474.78;;;21.56;22.79
7768;BME280;3928;42.626;23.382;2023-04-28T09:59:57;94463.56;;;20.91;23.72
7768;BME280;3928;42.626;23.382;2023-04-28T10:02:25;94457.44;;;21.40;23.72
7768;BME280;3928;42.626;23.382;2023-04-28T10:04:52;94456.97;;;21.79;23.39
7768;BME280;3928;42.626;23.382;2023-04-28T10:07:20;94451.34;;;21.85;22.57
7768;BME280;3928;42.626;23.382;2023-04-28T10:09:48;94449.22;;;21.62;23.27
7768;BME280;3928;42.626;23.382;2023-04-28T10:12:15;94436.47;;;21.10;23.56
7768;BME280;3928;42.626;23.382;2023-04-28T10:14:43;94354.34;;;20.85;24.14
7768;BME280;3928;42.626;23.382;2023-04-28T10:17:12;94435.59;;;21.56;24.00
7768;BME280;3928;42.626;23.382;2023-04-28T10:19:40;94440.38;;;21.34;22.93
7768;BME280;3928;42.626;23.382;2023-04-28T10:22:30;94444.94;;;21.60;23.27
7768;BME280;3928;42.626;23.382;2023-04-28T10:25:19;94437.72;;;22.10;22.40
7768;BME280;3928;42.626;23.382;2023-04-28T10:27:50;94435.25;;;22.51;22.45
7768;BME280;3928;42.626;23.382;2023-04-28T10:30:19;94444.13;;;22.91;23.09
7768;BME280;3928;42.626;23.382;2023-04-28T10:33:23;94435.44;;;23.18;22.27
7768;BME280;3928;42.626;23.382;2023-04-28T10:35:51;94410.50;;;23.39;22.26
7768;BME280;3928;42.626;23.382;2023-04-28T10:38:18;94431.56;;;23.38;21.14
7768;BME280;3928;42.626;23.382;2023-04-28T10:40:46;94438.28;;;23.42;22.42
7768;BME280;3928;42.626;23.382;2023-04-28T10:43:32;94422.53;;;22.88;21.76
7768;BME280;3928;42.626;23.382;2023-04-28T10:46:03;94414.97;;;23.24;21.33
7768;BME280;3928;42.626;23.382;2023-04-28T10:48:58;94414.44;;;23.32;21.06
7768;BME280;3928;42.626;23.382;2023-04-28T10:51:32;94409.66;;;22.42;22.00
7768;BME280;3928;42.626;23.382;2023-04-28T10:54:16;94392.72;;;22.47;22.17
7768;BME280;3928;42.626;23.382;2023-04-28T10:57:17;94401.94;;;23.10;22.22
7768;BME280;3928;42.626;23.382;2023-04-28T10:59:44;94406.47;;;23.48;21.19
7768;BME280;3928;42.626;23.382;2023-04-28T11:02:36;94401.56;;;23.96;21.97
7768;BME280;3928;42.626;23.382;2023-04-28T11:05:16;94396.88;;;24.52;20.96
7768;BME280;3928;42.626;23.382;2023-04-28T11:11:18;94394.56;;;24.34;20.52
7768;BME280;3928;42.626;23.382;2023-04-28T11:13:46;94390.97;;;24.61;19.92
7768;BME280;3928;42.626;23.382;2023-04-28T11:16:14;94398.84;;;24.61;19.83
7768;BME280;3928;42.626;23.382;2023-04-28T11:19:06;94387.94;;;24.29;20.31
7768;BME280;3928;42.626;23.382;2023-04-28T11:21:38;94374.94;;;24.27;20.52
7768;BME280;3928;42.626;23.382;2023-04-28T11:24:08;94375.63;;;24.80;21.02
7768;BME280;3928;42.626;23.382;2023-04-28T11:26:36;94384.88;;;25.10;19.69
7768;BME280;3928;42.626;23.382;2023-04-28T11:29:04;94387.81;;;25.18;19.67
7768;BME280;3928;42.626;23.382;2023-04-28T11:31:31;94386.13;;;25.17;19.81
7768;BME280;3928;42.626;23.382;2023-04-28T11:34:02;94371.56;;;25.36;19.43
7768;BME280;3928;42.626;23.382;2023-04-28T11:36:32;94380.84;;;25.64;19.45
7768;BME280;3928;42.626;23.382;2023-04-28T11:39:01;94364.72;;;25.82;19.24
7768;BME280;3928;42.626;23.382;2023-04-28T11:41:32;94356.38;;;25.99;19.05
7768;BME280;3928;42.626;23.382;2023-04-28T11:43:59;94366.03;;;26.45;18.85
7768;BME280;3928;42.626;23.382;2023-04-28T11:46:26;94364.81;;;26.60;18.11
7768;BME280;3928;42.626;23.382;2023-04-28T11:49:00;94371.03;;;26.37;17.36
7768;BME280;3928;42.626;23.382;2023-04-28T11:51:36;94366.75;;;26.01;17.53
7768;BME280;3928;42.626;23.382;2023-04-28T11:54:05;94338.19;;;25.96;18.46
7768;BME280;3928;42.626;23.382;2023-04-28T11:56:37;94359.25;;;26.07;18.43
7768;BME280;3928;42.626;23.382;2023-04-28T11:59:06;94341.41;;;25.88;18.09
7768;BME280;3928;42.626;23.382;2023-04-28T12:01:34;94352.66;;;25.07;17.48
7768;BME280;3928;42.626;23.382;2023-04-28T12:04:09;94344.69;;;25.44;18.40
7768;BME280;3928;42.626;23.382;2023-04-28T12:06:37;94343.56;;;25.83;17.67
7768;BME280;3928;42.626;23.382;2023-04-28T12:09:15;94172.66;;;24.79;18.34
7768;BME280;3928;42.626;23.382;2023-04-28T12:11:53;94345.88;;;25.40;17.12
7768;BME280;3928;42.626;23.382;2023-04-28T12:14:21;94346.69;;;24.93;17.81
7768;BME280;3928;42.626;23.382;2023-04-28T12:16:48;94325.00;;;25.15;17.71
7768;BME280;3928;42.626;23.382;2023-04-28T12:19:16;94332.59;;;25.65;18.21
7768;BME280;3928;42.626;23.382;2023-04-28T12:21:57;94314.88;;;26.03;17.99
7768;BME280;3928;42.626;23.382;2023-04-28T12:24:26;94321.91;;;25.91;17.63
7768;BME280;3928;42.626;23.382;2023-04-28T12:26:53;94320.78;;;26.17;18.02
7768;BME280;3928;42.626;23.382;2023-04-28T12:29:37;94330.81;;;26.12;17.52
7768;BME280;3928;42.626;23.382;2023-04-28T12:32:09;94331.19;;;26.30;17.95
7768;BME280;3928;42.626;23.382;2023-04-28T12:34:37;94303.53;;;26.36;18.24
7768;BME280;3928;42.626;23.382;2023-04-28T12:37:05;94315.50;;;26.62;17.99
7768;BME280;3928;42.626;23.382;2023-04-28T12:39:34;94312.63;;;26.76;18.17
7768;BME280;3928;42.626;23.382;2023-04-28T12:42:02;94295.84;;;26.89;17.83
7768;BME280;3928;42.626;23.382;2023-04-28T12:44:34;94311.34;;;27.25;16.76
7768;BME280;3928;42.626;23.382;2023-04-28T12:47:02;94307.31;;;27.42;16.80
7768;BME280;3928;42.626;23.382;2023-04-28T12:49:29;94301.31;;;27.08;15.72
7768;BME280;3928;42.626;23.382;2023-04-28T12:51:56;94308.66;;;26.93;17.31
7768;BME280;3928;42.626;23.382;2023-04-28T12:54:23;94303.31;;;25.94;19.05
7768;BME280;3928;42.626;23.382;2023-04-28T12:56:51;94308.03;;;25.78;18.42
7768;BME280;3928;42.626;23.382;2023-04-28T12:59:19;94284.38;;;25.89;18.93
7768;BME280;3928;42.626;23.382;2023-04-28T13:01:45;94291.59;;;26.09;19.04
7768;BME280;3928;42.626;23.382;2023-04-28T13:04:12;94290.63;;;25.99;18.34
7768;BME280;3928;42.626;23.382;2023-04-28T13:06:39;94293.69;;;24.88;18.77
7768;BME280;3928;42.626;23.382;2023-04-28T13:09:08;94295.47;;;24.63;19.65
7768;BME280;3928;42.626;23.382;2023-04-28T13:11:35;94278.31;;;24.94;19.58
7768;BME280;3928;42.626;23.382;2023-04-28T13:14:03;94265.16;;;25.42;18.98
7768;BME280;3928;42.626;23.382;2023-04-28T13:16:30;94287.25;;;25.75;18.67
7768;BME280;3928;42.626;23.382;2023-04-28T13:18:58;94282.88;;;26.20;18.82
7768;BME280;3928;42.626;23.382;2023-04-28T13:21:25;94281.53;;;26.59;18.93
7768;BME280;3928;42.626;23.382;2023-04-28T13:23:53;94276.53;;;26.56;18.29